MMPR

Licenciado Gustavo Diaz Ordaz International Airport

ICAO Code MMPR
IATA Code PVR
Name Licenciado Gustavo Diaz Ordaz International Airport
Location Puerto Vallarta, Jalisco, MX
Elevation 23 Feet / 7 Meters
Latitude 20.68009949
Longitude -105.25399780
METAR MMPR 090448Z 02003KT 12SM SKC 20/17 A2995 RMK MSGTX MMMX
Extra information Display Charts and CFS
Display NOTAMS
Runway Length Width Surface Elevation
04 10171 ft 148 ft ASP 23 ft
22 10171 ft 148 ft ASP 23 ft